sensor_id;sensor_type;location;lat;lon;timestamp;P1;durP1;ratioP1;P2;durP2;ratioP2
13075;SDS011;6604;52.484;13.330;2022-11-20T07:48:45;16.30;;;8.53;;
13075;SDS011;6604;52.484;13.330;2022-11-20T07:51:12;14.70;;;8.23;;
13075;SDS011;6604;52.484;13.330;2022-11-20T07:53:38;16.60;;;8.87;;
13075;SDS011;6604;52.484;13.330;2022-11-20T07:56:05;14.37;;;8.67;;
13075;SDS011;6604;52.484;13.330;2022-11-20T07:58:32;17.57;;;9.40;;
13075;SDS011;6604;52.484;13.330;2022-11-20T08:01:02;15.93;;;8.97;;
13075;SDS011;6604;52.484;13.330;2022-11-20T08:03:28;16.93;;;9.50;;
13075;SDS011;6604;52.484;13.330;2022-11-20T08:05:59;16.23;;;9.03;;
13075;SDS011;6604;52.484;13.330;2022-11-20T08:08:26;15.63;;;8.47;;
13075;SDS011;6604;52.484;13.330;2022-11-20T08:10:53;16.80;;;9.30;;
13075;SDS011;6604;52.484;13.330;2022-11-20T08:13:39;20.63;;;9.27;;
13075;SDS011;6604;52.484;13.330;2022-11-20T08:16:23;16.50;;;9.67;;
13075;SDS011;6604;52.484;13.330;2022-11-20T08:18:49;16.10;;;8.73;;
13075;SDS011;6604;52.484;13.330;2022-11-20T08:21:17;14.77;;;8.60;;
13075;SDS011;6604;52.484;13.330;2022-11-20T08:23:44;17.13;;;9.07;;
13075;SDS011;6604;52.484;13.330;2022-11-20T08:26:10;12.73;;;7.90;;
13075;SDS011;6604;52.484;13.330;2022-11-20T08:28:37;17.83;;;9.17;;
13075;SDS011;6604;52.484;13.330;2022-11-20T08:31:03;15.63;;;8.97;;
13075;SDS011;6604;52.484;13.330;2022-11-20T08:33:30;15.10;;;8.40;;
13075;SDS011;6604;52.484;13.330;2022-11-20T08:36:00;17.40;;;9.30;;
13075;SDS011;6604;52.484;13.330;2022-11-20T08:38:28;15.00;;;8.80;;
13075;SDS011;6604;52.484;13.330;2022-11-20T08:40:56;15.00;;;8.73;;
13075;SDS011;6604;52.484;13.330;2022-11-20T08:43:36;15.90;;;9.13;;
13075;SDS011;6604;52.484;13.330;2022-11-20T08:46:02;17.10;;;9.23;;
13075;SDS011;6604;52.484;13.330;2022-11-20T08:48:29;18.13;;;9.63;;
13075;SDS011;6604;52.484;13.330;2022-11-20T08:50:57;15.30;;;8.67;;
13075;SDS011;6604;52.484;13.330;2022-11-20T08:53:23;13.90;;;8.53;;
13075;SDS011;6604;52.484;13.330;2022-11-20T08:55:51;18.70;;;9.23;;
13075;SDS011;6604;52.484;13.330;2022-11-20T08:58:18;15.87;;;9.20;;
13075;SDS011;6604;52.484;13.330;2022-11-20T09:00:44;13.67;;;8.50;;
13075;SDS011;6604;52.484;13.330;2022-11-20T09:03:11;17.73;;;9.03;;
13075;SDS011;6604;52.484;13.330;2022-11-20T09:05:38;17.07;;;8.70;;
13075;SDS011;6604;52.484;13.330;2022-11-20T09:08:05;16.10;;;8.57;;
13075;SDS011;6604;52.484;13.330;2022-11-20T09:10:31;16.37;;;8.90;;
13075;SDS011;6604;52.484;13.330;2022-11-20T09:13:00;15.67;;;9.33;;
13075;SDS011;6604;52.484;13.330;2022-11-20T09:15:27;14.23;;;9.00;;
13075;SDS011;6604;52.484;13.330;2022-11-20T09:17:54;15.97;;;8.60;;
13075;SDS011;6604;52.484;13.330;2022-11-20T09:20:21;15.43;;;8.87;;
13075;SDS011;6604;52.484;13.330;2022-11-20T09:22:48;16.27;;;8.83;;
13075;SDS011;6604;52.484;13.330;2022-11-20T09:25:14;14.53;;;8.50;;
13075;SDS011;6604;52.484;13.330;2022-11-20T09:27:41;16.60;;;9.30;;
13075;SDS011;6604;52.484;13.330;2022-11-20T09:30:11;15.10;;;8.77;;
13075;SDS011;6604;52.484;13.330;2022-11-20T09:32:38;16.20;;;8.90;;
13075;SDS011;6604;52.484;13.330;2022-11-20T09:35:05;17.50;;;8.20;;
13075;SDS011;6604;52.484;13.330;2022-11-20T09:37:31;16.20;;;9.70;;
13075;SDS011;6604;52.484;13.330;2022-11-20T09:39:58;18.20;;;9.20;;
13075;SDS011;6604;52.484;13.330;2022-11-20T09:42:30;16.53;;;8.67;;
13075;SDS011;6604;52.484;13.330;2022-11-20T09:45:05;16.47;;;8.63;;
13075;SDS011;6604;52.484;13.330;2022-11-20T09:47:41;16.20;;;8.50;;
13075;SDS011;6604;52.484;13.330;2022-11-20T09:50:18;14.43;;;7.87;;
13075;SDS011;6604;52.484;13.330;2022-11-20T09:52:47;17.10;;;9.63;;
13075;SDS011;6604;52.484;13.330;2022-11-20T09:55:18;14.43;;;8.13;;
13075;SDS011;6604;52.484;13.330;2022-11-20T09:57:46;16.00;;;8.50;;
13075;SDS011;6604;52.484;13.330;2022-11-20T10:00:14;15.20;;;8.60;;
13075;SDS011;6604;52.484;13.330;2022-11-20T10:02:44;14.07;;;7.97;;
13075;SDS011;6604;52.484;13.330;2022-11-20T10:05:15;17.13;;;8.43;;
13075;SDS011;6604;52.484;13.330;2022-11-20T10:07:44;13.57;;;8.13;;
13075;SDS011;6604;52.484;13.330;2022-11-20T10:10:14;16.53;;;9.47;;
13075;SDS011;6604;52.484;13.330;2022-11-20T10:12:49;16.17;;;9.03;;
13075;SDS011;6604;52.484;13.330;2022-11-20T10:15:24;13.90;;;8.40;;
13075;SDS011;6604;52.484;13.330;2022-11-20T10:17:58;13.13;;;8.23;;
13075;SDS011;6604;52.484;13.330;2022-11-20T10:20:28;14.87;;;8.37;;
13075;SDS011;6604;52.484;13.330;2022-11-20T10:23:04;13.70;;;7.90;;
13075;SDS011;6604;52.484;13.330;2022-11-20T10:25:34;16.40;;;8.80;;
13075;SDS011;6604;52.484;13.330;2022-11-20T10:28:10;17.30;;;9.07;;
13075;SDS011;6604;52.484;13.330;2022-11-20T10:30:42;16.27;;;9.07;;
13075;SDS011;6604;52.484;13.330;2022-11-20T10:33:13;10.93;;;7.97;;
13075;SDS011;6604;52.484;13.330;2022-11-20T10:35:42;15.70;;;8.23;;
13075;SDS011;6604;52.484;13.330;2022-11-20T10:38:12;13.50;;;7.93;;
13075;SDS011;6604;52.484;13.330;2022-11-20T10:40:44;12.27;;;8.30;;
13075;SDS011;6604;52.484;13.330;2022-11-20T10:43:12;16.30;;;9.23;;
13075;SDS011;6604;52.484;13.330;2022-11-20T10:45:43;21.30;;;9.13;;
13075;SDS011;6604;52.484;13.330;2022-11-20T10:48:15;13.97;;;8.37;;
13075;SDS011;6604;52.484;13.330;2022-11-20T10:50:46;15.53;;;8.23;;
13075;SDS011;6604;52.484;13.330;2022-11-20T10:53:20;12.87;;;7.93;;
13075;SDS011;6604;52.484;13.330;2022-11-20T10:55:50;13.33;;;7.60;;
13075;SDS011;6604;52.484;13.330;2022-11-20T10:58:21;15.63;;;8.27;;
13075;SDS011;6604;52.484;13.330;2022-11-20T11:00:50;14.43;;;8.30;;
13075;SDS011;6604;52.484;13.330;2022-11-20T11:03:22;16.23;;;8.37;;
13075;SDS011;6604;52.484;13.330;2022-11-20T11:05:50;13.53;;;7.87;;
13075;SDS011;6604;52.484;13.330;2022-11-20T11:08:18;15.27;;;8.43;;
13075;SDS011;6604;52.484;13.330;2022-11-20T11:10:46;13.43;;;7.67;;
13075;SDS011;6604;52.484;13.330;2022-11-20T11:13:20;16.13;;;8.90;;
13075;SDS011;6604;52.484;13.330;2022-11-20T11:15:47;15.43;;;8.10;;
13075;SDS011;6604;52.484;13.330;2022-11-20T11:18:24;14.00;;;8.47;;
13075;SDS011;6604;52.484;13.330;2022-11-20T11:20:51;15.27;;;7.40;;
13075;SDS011;6604;52.484;13.330;2022-11-20T11:23:25;12.83;;;7.50;;
13075;SDS011;6604;52.484;13.330;2022-11-20T11:25:56;13.17;;;8.20;;
13075;SDS011;6604;52.484;13.330;2022-11-20T11:28:23;13.60;;;8.17;;
13075;SDS011;6604;52.484;13.330;2022-11-20T11:30:52;13.23;;;7.90;;
13075;SDS011;6604;52.484;13.330;2022-11-20T11:33:19;12.17;;;7.20;;
13075;SDS011;6604;52.484;13.330;2022-11-20T11:35:47;11.87;;;7.53;;
13075;SDS011;6604;52.484;13.330;2022-11-20T11:38:16;12.63;;;7.87;;
13075;SDS011;6604;52.484;13.330;2022-11-20T11:40:43;11.57;;;6.80;;
13075;SDS011;6604;52.484;13.330;2022-11-20T11:43:16;12.30;;;7.33;;
13075;SDS011;6604;52.484;13.330;2022-11-20T11:45:57;12.30;;;7.10;;
13075;SDS011;6604;52.484;13.330;2022-11-20T11:48:24;13.60;;;8.33;;
13075;SDS011;6604;52.484;13.330;2022-11-20T11:50:52;12.53;;;7.37;;
13075;SDS011;6604;52.484;13.330;2022-11-20T11:53:19;12.07;;;7.20;;
13075;SDS011;6604;52.484;13.330;2022-11-20T11:55:49;11.83;;;7.43;;
13075;SDS011;6604;52.484;13.330;2022-11-20T11:58:22;14.27;;;7.77;;
13075;SDS011;6604;52.484;13.330;2022-11-20T12:00:54;15.47;;;8.77;;
13075;SDS011;6604;52.484;13.330;2022-11-20T12:03:24;11.87;;;7.03;;
13075;SDS011;6604;52.484;13.330;2022-11-20T12:05:55;11.87;;;6.90;;
13075;SDS011;6604;52.484;13.330;2022-11-20T12:08:23;11.60;;;6.83;;
13075;SDS011;6604;52.484;13.330;2022-11-20T12:10:52;12.87;;;7.47;;
13075;SDS011;6604;52.484;13.330;2022-11-20T12:13:23;12.93;;;7.90;;
13075;SDS011;6604;52.484;13.330;2022-11-20T12:15:52;11.87;;;7.67;;
13075;SDS011;6604;52.484;13.330;2022-11-20T12:18:19;11.07;;;6.83;;
13075;SDS011;6604;52.484;13.330;2022-11-20T12:20:48;14.93;;;6.83;;
13075;SDS011;6604;52.484;13.330;2022-11-20T12:23:20;13.87;;;6.63;;
13075;SDS011;6604;52.484;13.330;2022-11-20T12:25:51;13.03;;;6.77;;
13075;SDS011;6604;52.484;13.330;2022-11-20T12:31:14;9.03;;;6.17;;
13075;SDS011;6604;52.484;13.330;2022-11-20T12:33:57;11.47;;;6.37;;
13075;SDS011;6604;52.484;13.330;2022-11-20T12:36:27;11.33;;;6.33;;
13075;SDS011;6604;52.484;13.330;2022-11-20T12:39:07;12.63;;;6.47;;
13075;SDS011;6604;52.484;13.330;2022-11-20T12:41:43;10.93;;;6.17;;
13075;SDS011;6604;52.484;13.330;2022-11-20T12:44:34;9.70;;;5.13;;
13075;SDS011;6604;52.484;13.330;2022-11-20T12:47:21;10.63;;;5.40;;
13075;SDS011;6604;52.484;13.330;2022-11-20T12:49:52;9.33;;;5.40;;
13075;SDS011;6604;52.484;13.330;2022-11-20T12:52:25;8.47;;;5.27;;
13075;SDS011;6604;52.484;13.330;2022-11-20T12:55:01;7.97;;;5.13;;
13075;SDS011;6604;52.484;13.330;2022-11-20T12:57:29;9.47;;;5.93;;
13075;SDS011;6604;52.484;13.330;2022-11-20T13:00:03;7.50;;;4.93;;
13075;SDS011;6604;52.484;13.330;2022-11-20T13:02:34;8.77;;;4.90;;
13075;SDS011;6604;52.484;13.330;2022-11-20T13:07:51;10.03;;;5.60;;
13075;SDS011;6604;52.484;13.330;2022-11-20T13:10:23;8.47;;;5.13;;
13075;SDS011;6604;52.484;13.330;2022-11-20T13:12:54;9.20;;;5.23;;
13075;SDS011;6604;52.484;13.330;2022-11-20T13:15:24;8.23;;;5.00;;
13075;SDS011;6604;52.484;13.330;2022-11-20T13:17:53;9.83;;;5.27;;
13075;SDS011;6604;52.484;13.330;2022-11-20T13:20:20;8.33;;;5.07;;
13075;SDS011;6604;52.484;13.330;2022-11-20T13:22:47;8.90;;;5.47;;
13075;SDS011;6604;52.484;13.330;2022-11-20T13:25:25;8.40;;;5.03;;
13075;SDS011;6604;52.484;13.330;2022-11-20T13:27:53;9.90;;;5.47;;
13075;SDS011;6604;52.484;13.330;2022-11-20T13:30:20;8.97;;;5.30;;
13075;SDS011;6604;52.484;13.330;2022-11-20T13:32:47;9.87;;;6.10;;
13075;SDS011;6604;52.484;13.330;2022-11-20T13:35:23;9.60;;;4.93;;
13075;SDS011;6604;52.484;13.330;2022-11-20T13:37:58;9.00;;;5.70;;
13075;SDS011;6604;52.484;13.330;2022-11-20T13:40:26;8.43;;;5.33;;
13075;SDS011;6604;52.484;13.330;2022-11-20T13:42:55;9.47;;;5.07;;
13075;SDS011;6604;52.484;13.330;2022-11-20T13:45:23;10.13;;;5.17;;
13075;SDS011;6604;52.484;13.330;2022-11-20T13:47:50;8.57;;;5.33;;
13075;SDS011;6604;52.484;13.330;2022-11-20T13:50:17;8.07;;;4.77;;
13075;SDS011;6604;52.484;13.330;2022-11-20T13:52:47;8.30;;;4.93;;
13075;SDS011;6604;52.484;13.330;2022-11-20T13:55:18;10.40;;;5.07;;
13075;SDS011;6604;52.484;13.330;2022-11-20T13:57:52;7.87;;;4.40;;
13075;SDS011;6604;52.484;13.330;2022-11-20T14:00:21;8.90;;;5.00;;
13075;SDS011;6604;52.484;13.330;2022-11-20T14:02:51;7.30;;;4.73;;
13075;SDS011;6604;52.484;13.330;2022-11-20T14:05:23;8.27;;;4.90;;
13075;SDS011;6604;52.484;13.330;2022-11-20T14:07:50;10.30;;;5.10;;
13075;SDS011;6604;52.484;13.330;2022-11-20T14:10:21;9.30;;;4.83;;
13075;SDS011;6604;52.484;13.330;2022-11-20T14:12:47;7.93;;;4.90;;
13075;SDS011;6604;52.484;13.330;2022-11-20T14:15:25;8.50;;;4.90;;
13075;SDS011;6604;52.484;13.330;2022-11-20T14:17:51;5.43;;;3.90;;
13075;SDS011;6604;52.484;13.330;2022-11-20T14:20:18;6.63;;;4.13;;
13075;SDS011;6604;52.484;13.330;2022-11-20T14:22:48;8.67;;;4.60;;
13075;SDS011;6604;52.484;13.330;2022-11-20T14:25:18;8.17;;;4.73;;
13075;SDS011;6604;52.484;13.330;2022-11-20T14:27:47;6.70;;;4.67;;
13075;SDS011;6604;52.484;13.330;2022-11-20T14:30:16;9.40;;;5.10;;
13075;SDS011;6604;52.484;13.330;2022-11-20T14:32:45;11.57;;;4.40;;
13075;SDS011;6604;52.484;13.330;2022-11-20T14:35:13;7.90;;;4.47;;
13075;SDS011;6604;52.484;13.330;2022-11-20T14:37:44;8.80;;;4.27;;
13075;SDS011;6604;52.484;13.330;2022-11-20T14:40:24;7.80;;;4.40;;
13075;SDS011;6604;52.484;13.330;2022-11-20T14:42:51;10.97;;;5.07;;
13075;SDS011;6604;52.484;13.330;2022-11-20T14:45:17;7.83;;;5.07;;
13075;SDS011;6604;52.484;13.330;2022-11-20T14:47:45;10.13;;;5.80;;
13075;SDS011;6604;52.484;13.330;2022-11-20T14:50:12;9.00;;;5.57;;
13075;SDS011;6604;52.484;13.330;2022-11-20T14:52:40;9.00;;;5.10;;
13075;SDS011;6604;52.484;13.330;2022-11-20T14:55:24;9.83;;;5.27;;
13075;SDS011;6604;52.484;13.330;2022-11-20T14:57:54;11.97;;;6.60;;
13075;SDS011;6604;52.484;13.330;2022-11-20T15:00:21;9.93;;;5.77;;
13075;SDS011;6604;52.484;13.330;2022-11-20T15:02:49;7.83;;;5.20;;
13075;SDS011;6604;52.484;13.330;2022-11-20T15:05:17;9.73;;;5.60;;
13075;SDS011;6604;52.484;13.330;2022-11-20T15:07:44;9.63;;;5.43;;
13075;SDS011;6604;52.484;13.330;2022-11-20T15:10:12;10.43;;;5.57;;
13075;SDS011;6604;52.484;13.330;2022-11-20T15:12:40;10.57;;;5.63;;
13075;SDS011;6604;52.484;13.330;2022-11-20T15:15:08;7.30;;;5.10;;
13075;SDS011;6604;52.484;13.330;2022-11-20T15:17:37;8.77;;;5.77;;
13075;SDS011;6604;52.484;13.330;2022-11-20T15:20:08;10.67;;;6.10;;
13075;SDS011;6604;52.484;13.330;2022-11-20T15:22:36;10.67;;;5.27;;
13075;SDS011;6604;52.484;13.330;2022-11-20T15:25:05;9.50;;;5.90;;
13075;SDS011;6604;52.484;13.330;2022-11-20T15:27:34;15.80;;;5.73;;
13075;SDS011;6604;52.484;13.330;2022-11-20T15:30:00;11.93;;;5.93;;
13075;SDS011;6604;52.484;13.330;2022-11-20T15:32:27;10.03;;;5.63;;
13075;SDS011;6604;52.484;13.330;2022-11-20T15:34:53;9.97;;;5.53;;
13075;SDS011;6604;52.484;13.330;2022-11-20T15:37:21;10.73;;;5.80;;
13075;SDS011;6604;52.484;13.330;2022-11-20T15:39:48;10.67;;;6.57;;
13075;SDS011;6604;52.484;13.330;2022-11-20T15:42:14;9.77;;;6.10;;
13075;SDS011;6604;52.484;13.330;2022-11-20T15:44:41;11.63;;;6.40;;
13075;SDS011;6604;52.484;13.330;2022-11-20T15:47:07;11.00;;;6.57;;
13075;SDS011;6604;52.484;13.330;2022-11-20T15:49:34;10.23;;;6.47;;
13075;SDS011;6604;52.484;13.330;2022-11-20T15:52:01;12.90;;;6.60;;
13075;SDS011;6604;52.484;13.330;2022-11-20T15:54:29;12.60;;;6.47;;
13075;SDS011;6604;52.484;13.330;2022-11-20T15:56:56;10.70;;;5.57;;
13075;SDS011;6604;52.484;13.330;2022-11-20T15:59:23;12.43;;;6.27;;
13075;SDS011;6604;52.484;13.330;2022-11-20T16:01:49;12.63;;;5.83;;
13075;SDS011;6604;52.484;13.330;2022-11-20T16:04:16;10.77;;;6.40;;
13075;SDS011;6604;52.484;13.330;2022-11-20T16:06:43;10.57;;;6.30;;
13075;SDS011;6604;52.484;13.330;2022-11-20T16:09:10;16.93;;;7.37;;
13075;SDS011;6604;52.484;13.330;2022-11-20T16:11:37;11.83;;;6.50;;
13075;SDS011;6604;52.484;13.330;2022-11-20T16:14:04;8.80;;;6.13;;
13075;SDS011;6604;52.484;13.330;2022-11-20T16:16:48;11.03;;;5.77;;
13075;SDS011;6604;52.484;13.330;2022-11-20T16:19:15;12.70;;;6.20;;
13075;SDS011;6604;52.484;13.330;2022-11-20T16:21:43;11.77;;;6.10;;
13075;SDS011;6604;52.484;13.330;2022-11-20T16:24:10;7.83;;;5.43;;
13075;SDS011;6604;52.484;13.330;2022-11-20T16:26:39;10.57;;;6.17;;
13075;SDS011;6604;52.484;13.330;2022-11-20T16:29:06;10.23;;;6.07;;
13075;SDS011;6604;52.484;13.330;2022-11-20T16:31:32;9.20;;;5.73;;
13075;SDS011;6604;52.484;13.330;2022-11-20T16:34:00;8.97;;;5.30;;
13075;SDS011;6604;52.484;13.330;2022-11-20T16:36:27;8.40;;;5.57;;
13075;SDS011;6604;52.484;13.330;2022-11-20T16:38:54;9.47;;;5.57;;
13075;SDS011;6604;52.484;13.330;2022-11-20T16:41:21;8.33;;;5.40;;
13075;SDS011;6604;52.484;13.330;2022-11-20T16:43:50;9.67;;;5.60;;
13075;SDS011;6604;52.484;13.330;2022-11-20T16:46:17;8.67;;;5.67;;
13075;SDS011;6604;52.484;13.330;2022-11-20T16:48:44;11.90;;;6.03;;
13075;SDS011;6604;52.484;13.330;2022-11-20T16:51:11;10.40;;;5.80;;
13075;SDS011;6604;52.484;13.330;2022-11-20T16:53:38;11.27;;;6.43;;
13075;SDS011;6604;52.484;13.330;2022-11-20T16:56:09;12.03;;;6.40;;
13075;SDS011;6604;52.484;13.330;2022-11-20T16:58:35;11.73;;;5.93;;
13075;SDS011;6604;52.484;13.330;2022-11-20T17:01:05;12.00;;;6.43;;
13075;SDS011;6604;52.484;13.330;2022-11-20T17:03:34;11.70;;;6.37;;
13075;SDS011;6604;52.484;13.330;2022-11-20T17:06:01;8.87;;;6.13;;
13075;SDS011;6604;52.484;13.330;2022-11-20T17:08:27;9.90;;;6.40;;
13075;SDS011;6604;52.484;13.330;2022-11-20T17:10:54;9.03;;;6.37;;
13075;SDS011;6604;52.484;13.330;2022-11-20T17:13:21;11.80;;;7.40;;
13075;SDS011;6604;52.484;13.330;2022-11-20T17:15:47;10.47;;;6.20;;
13075;SDS011;6604;52.484;13.330;2022-11-20T17:18:15;10.33;;;6.33;;
13075;SDS011;6604;52.484;13.330;2022-11-20T17:20:41;10.90;;;6.60;;
13075;SDS011;6604;52.484;13.330;2022-11-20T17:23:08;10.77;;;6.73;;
13075;SDS011;6604;52.484;13.330;2022-11-20T17:25:34;9.17;;;5.73;;
13075;SDS011;6604;52.484;13.330;2022-11-20T17:28:01;9.53;;;5.93;;
13075;SDS011;6604;52.484;13.330;2022-11-20T17:30:27;8.83;;;5.70;;
13075;SDS011;6604;52.484;13.330;2022-11-20T17:32:54;11.13;;;6.57;;
13075;SDS011;6604;52.484;13.330;2022-11-20T17:35:22;11.03;;;6.57;;
13075;SDS011;6604;52.484;13.330;2022-11-20T17:37:48;11.50;;;6.90;;
13075;SDS011;6604;52.484;13.330;2022-11-20T17:40:14;11.23;;;6.57;;
13075;SDS011;6604;52.484;13.330;2022-11-20T17:42:41;10.20;;;6.67;;
13075;SDS011;6604;52.484;13.330;2022-11-20T17:45:07;12.13;;;7.27;;
13075;SDS011;6604;52.484;13.330;2022-11-20T17:47:34;11.33;;;6.43;;
13075;SDS011;6604;52.484;13.330;2022-11-20T17:50:01;11.90;;;7.50;;
13075;SDS011;6604;52.484;13.330;2022-11-20T17:52:29;11.10;;;6.67;;
13075;SDS011;6604;52.484;13.330;2022-11-20T17:54:55;11.30;;;6.27;;
13075;SDS011;6604;52.484;13.330;2022-11-20T17:57:22;10.77;;;6.93;;
13075;SDS011;6604;52.484;13.330;2022-11-20T18:00:06;10.03;;;6.77;;
13075;SDS011;6604;52.484;13.330;2022-11-20T18:02:34;11.40;;;7.10;;
13075;SDS011;6604;52.484;13.330;2022-11-20T18:05:00;9.63;;;6.40;;
13075;SDS011;6604;52.484;13.330;2022-11-20T18:07:28;11.77;;;7.33;;
13075;SDS011;6604;52.484;13.330;2022-11-20T18:09:55;12.63;;;6.93;;
13075;SDS011;6604;52.484;13.330;2022-11-20T18:12:21;9.87;;;6.67;;
13075;SDS011;6604;52.484;13.330;2022-11-20T18:14:48;12.17;;;7.10;;
13075;SDS011;6604;52.484;13.330;2022-11-20T18:17:14;11.03;;;6.97;;
13075;SDS011;6604;52.484;13.330;2022-11-20T18:19:42;12.33;;;8.03;;
13075;SDS011;6604;52.484;13.330;2022-11-20T18:22:09;12.87;;;7.63;;
13075;SDS011;6604;52.484;13.330;2022-11-20T18:24:37;13.50;;;8.00;;
13075;SDS011;6604;52.484;13.330;2022-11-20T18:27:04;14.83;;;7.97;;
13075;SDS011;6604;52.484;13.330;2022-11-20T18:29:31;12.43;;;7.67;;
13075;SDS011;6604;52.484;13.330;2022-11-20T18:31:58;13.30;;;7.53;;
13075;SDS011;6604;52.484;13.330;2022-11-20T18:34:24;12.40;;;7.40;;
13075;SDS011;6604;52.484;13.330;2022-11-20T18:36:51;15.07;;;8.00;;
13075;SDS011;6604;52.484;13.330;2022-11-20T18:39:18;11.60;;;7.93;;
13075;SDS011;6604;52.484;13.330;2022-11-20T18:41:46;12.83;;;7.70;;
13075;SDS011;6604;52.484;13.330;2022-11-20T18:44:30;14.07;;;8.07;;
13075;SDS011;6604;52.484;13.330;2022-11-20T18:47:17;15.87;;;8.87;;
13075;SDS011;6604;52.484;13.330;2022-11-20T18:49:44;13.67;;;8.50;;
13075;SDS011;6604;52.484;13.330;2022-11-20T18:52:15;13.20;;;7.13;;
13075;SDS011;6604;52.484;13.330;2022-11-20T18:54:41;12.17;;;7.73;;
13075;SDS011;6604;52.484;13.330;2022-11-20T18:57:09;14.80;;;8.00;;
13075;SDS011;6604;52.484;13.330;2022-11-20T18:59:38;13.37;;;8.53;;
13075;SDS011;6604;52.484;13.330;2022-11-20T19:02:07;12.10;;;8.13;;
13075;SDS011;6604;52.484;13.330;2022-11-20T19:04:34;14.23;;;8.00;;
13075;SDS011;6604;52.484;13.330;2022-11-20T19:07:00;15.83;;;8.37;;
13075;SDS011;6604;52.484;13.330;2022-11-20T19:09:27;12.03;;;7.53;;
13075;SDS011;6604;52.484;13.330;2022-11-20T19:11:54;13.00;;;8.13;;
13075;SDS011;6604;52.484;13.330;2022-11-20T19:14:22;11.73;;;7.37;;
13075;SDS011;6604;52.484;13.330;2022-11-20T19:16:48;12.43;;;7.83;;
13075;SDS011;6604;52.484;13.330;2022-11-20T19:19:15;13.27;;;7.97;;
13075;SDS011;6604;52.484;13.330;2022-11-20T19:21:42;13.77;;;8.23;;
13075;SDS011;6604;52.484;13.330;2022-11-20T19:24:08;13.57;;;7.70;;
13075;SDS011;6604;52.484;13.330;2022-11-20T19:26:35;15.97;;;8.43;;
13075;SDS011;6604;52.484;13.330;2022-11-20T19:29:02;16.30;;;8.63;;
13075;SDS011;6604;52.484;13.330;2022-11-20T19:31:30;15.43;;;8.50;;
13075;SDS011;6604;52.484;13.330;2022-11-20T19:33:57;13.47;;;8.20;;
13075;SDS011;6604;52.484;13.330;2022-11-20T19:36:25;13.20;;;7.93;;
13075;SDS011;6604;52.484;13.330;2022-11-20T19:38:52;14.67;;;8.30;;
13075;SDS011;6604;52.484;13.330;2022-11-20T19:41:19;16.40;;;9.57;;
13075;SDS011;6604;52.484;13.330;2022-11-20T19:43:53;12.47;;;8.30;;
13075;SDS011;6604;52.484;13.330;2022-11-20T19:46:19;13.97;;;8.20;;
13075;SDS011;6604;52.484;13.330;2022-11-20T19:48:47;15.93;;;8.80;;
13075;SDS011;6604;52.484;13.330;2022-11-20T19:51:14;13.57;;;7.80;;
13075;SDS011;6604;52.484;13.330;2022-11-20T19:53:41;15.70;;;8.30;;
13075;SDS011;6604;52.484;13.330;2022-11-20T19:56:08;11.97;;;8.37;;
13075;SDS011;6604;52.484;13.330;2022-11-20T19:58:35;12.77;;;8.13;;
13075;SDS011;6604;52.484;13.330;2022-11-20T20:01:05;15.30;;;8.37;;
13075;SDS011;6604;52.484;13.330;2022-11-20T20:03:32;14.47;;;8.30;;
13075;SDS011;6604;52.484;13.330;2022-11-20T20:06:01;15.33;;;8.63;;
13075;SDS011;6604;52.484;13.330;2022-11-20T20:08:28;15.43;;;9.23;;
13075;SDS011;6604;52.484;13.330;2022-11-20T20:10:54;13.37;;;8.57;;
13075;SDS011;6604;52.484;13.330;2022-11-20T20:13:21;12.17;;;7.70;;
13075;SDS011;6604;52.484;13.330;2022-11-20T20:15:47;12.50;;;7.73;;
13075;SDS011;6604;52.484;13.330;2022-11-20T20:18:14;14.03;;;8.50;;
13075;SDS011;6604;52.484;13.330;2022-11-20T20:20:40;13.97;;;8.07;;
13075;SDS011;6604;52.484;13.330;2022-11-20T20:23:08;14.80;;;8.43;;
13075;SDS011;6604;52.484;13.330;2022-11-20T20:25:35;13.33;;;8.63;;
13075;SDS011;6604;52.484;13.330;2022-11-20T20:28:02;12.83;;;8.13;;
13075;SDS011;6604;52.484;13.330;2022-11-20T20:30:28;13.93;;;8.53;;
13075;SDS011;6604;52.484;13.330;2022-11-20T20:32:55;14.70;;;8.77;;
13075;SDS011;6604;52.484;13.330;2022-11-20T20:35:21;15.13;;;8.60;;
13075;SDS011;6604;52.484;13.330;2022-11-20T20:37:48;14.23;;;8.37;;
13075;SDS011;6604;52.484;13.330;2022-11-20T20:40:16;11.13;;;7.97;;
13075;SDS011;6604;52.484;13.330;2022-11-20T20:42:43;14.23;;;8.73;;
13075;SDS011;6604;52.484;13.330;2022-11-20T20:45:10;12.07;;;7.90;;
13075;SDS011;6604;52.484;13.330;2022-11-20T20:47:37;13.93;;;8.10;;
13075;SDS011;6604;52.484;13.330;2022-11-20T20:50:03;14.73;;;7.63;;
13075;SDS011;6604;52.484;13.330;2022-11-20T20:52:30;12.93;;;7.47;;
13075;SDS011;6604;52.484;13.330;2022-11-20T20:54:57;14.83;;;8.57;;
13075;SDS011;6604;52.484;13.330;2022-11-20T20:57:25;13.10;;;7.87;;
13075;SDS011;6604;52.484;13.330;2022-11-20T20:59:52;13.07;;;7.50;;
13075;SDS011;6604;52.484;13.330;2022-11-20T21:02:19;13.77;;;7.83;;
13075;SDS011;6604;52.484;13.330;2022-11-20T21:04:46;12.37;;;7.23;;
13075;SDS011;6604;52.484;13.330;2022-11-20T21:07:13;16.70;;;8.07;;
13075;SDS011;6604;52.484;13.330;2022-11-20T21:09:39;13.23;;;7.53;;
13075;SDS011;6604;52.484;13.330;2022-11-20T21:12:06;15.90;;;8.47;;
13075;SDS011;6604;52.484;13.330;2022-11-20T21:14:34;12.63;;;7.83;;
13075;SDS011;6604;52.484;13.330;2022-11-20T21:17:00;13.43;;;7.73;;
13075;SDS011;6604;52.484;13.330;2022-11-20T21:19:27;12.60;;;7.90;;
13075;SDS011;6604;52.484;13.330;2022-11-20T21:21:54;15.93;;;8.23;;
13075;SDS011;6604;52.484;13.330;2022-11-20T21:24:27;12.87;;;8.27;;
13075;SDS011;6604;52.484;13.330;2022-11-20T21:26:54;12.93;;;7.83;;
13075;SDS011;6604;52.484;13.330;2022-11-20T21:29:21;14.70;;;8.30;;
13075;SDS011;6604;52.484;13.330;2022-11-20T21:31:49;14.00;;;8.60;;
13075;SDS011;6604;52.484;13.330;2022-11-20T21:34:17;14.93;;;7.67;;
13075;SDS011;6604;52.484;13.330;2022-11-20T21:36:43;15.03;;;8.37;;
13075;SDS011;6604;52.484;13.330;2022-11-20T21:39:10;16.63;;;8.60;;
13075;SDS011;6604;52.484;13.330;2022-11-20T21:41:37;16.13;;;8.30;;
13075;SDS011;6604;52.484;13.330;2022-11-20T21:44:04;13.63;;;8.47;;
13075;SDS011;6604;52.484;13.330;2022-11-20T21:46:32;13.07;;;8.17;;
13075;SDS011;6604;52.484;13.330;2022-11-20T21:49:00;13.00;;;8.03;;
13075;SDS011;6604;52.484;13.330;2022-11-20T21:51:28;13.27;;;8.17;;
13075;SDS011;6604;52.484;13.330;2022-11-20T21:53:55;14.47;;;8.37;;
13075;SDS011;6604;52.484;13.330;2022-11-20T21:56:22;12.90;;;7.80;;
13075;SDS011;6604;52.484;13.330;2022-11-20T21:58:49;13.67;;;8.00;;
13075;SDS011;6604;52.484;13.330;2022-11-20T22:01:17;12.83;;;7.90;;
13075;SDS011;6604;52.484;13.330;2022-11-20T22:03:46;13.30;;;8.13;;
13075;SDS011;6604;52.484;13.330;2022-11-20T22:06:14;12.73;;;7.37;;
13075;SDS011;6604;52.484;13.330;2022-11-20T22:08:40;12.93;;;7.90;;
13075;SDS011;6604;52.484;13.330;2022-11-20T22:11:07;14.20;;;7.97;;
13075;SDS011;6604;52.484;13.330;2022-11-20T22:13:34;10.70;;;7.70;;
13075;SDS011;6604;52.484;13.330;2022-11-20T22:16:19;16.30;;;7.87;;
13075;SDS011;6604;52.484;13.330;2022-11-20T22:18:46;13.73;;;8.60;;
13075;SDS011;6604;52.484;13.330;2022-11-20T22:21:15;11.67;;;7.63;;
13075;SDS011;6604;52.484;13.330;2022-11-20T22:23:41;15.17;;;8.30;;
13075;SDS011;6604;52.484;13.330;2022-11-20T22:26:09;11.67;;;7.03;;
13075;SDS011;6604;52.484;13.330;2022-11-20T22:28:36;12.63;;;7.27;;
